Pagrindinis puslapis
METAR-TAF:

METAR-TAF

Oro uostai :

Jorge Newbery oro uostas

Buenos Airės, Argentina

platuma: 34-34S, ilguma: 058-25W, Aukštis: 6 m

Dabartinis oras

Ataskaita buvo paskelbta 32 minutes, ne 10:00 UTC
Vėjas 4 kt iš Pietryčių
Temperatūra 10°C
Drėgmė 43%
Slėgis 1029 hPa
Matomumas 10 km arba daugiau
nėra debesų žemiau 1500 m ir nėra kamuolinių lietaus debesų

METAR: SABE 221000Z 13004KT CAVOK 10/M02 Q1029 NOSIG

Laikas: 07:32 (10:32 UTC)

Prognozė

Ataskaita buvo paskelbta 5 valandos ir 32 minutes, ne 05:00 UTC
Prognozė galioja nuo 22 metu 06 UTC su 23 metu 06 UTC
Vėjas 10 kt iš Rytų/Pietryčių
Matomumas 10 km arba daugiau
nėra debesų žemiau 1500 m ir nėra kamuolinių lietaus debesų
Tapsmas
nuo 22 metu 11 UTC su 22 metu 13 UTC
Vėjas 10 kt iš Rytų
Tapsmas
nuo 23 metu 01 UTC su 23 metu 03 UTC
Vėjas 15 kt iš Rytų/Šiaurės Rytų

TAF: SABE 220500Z 2206/2306 12010KT CAVOK TX17/2218Z TN09/2210Z BECMG 2211/2213 09010KT BECMG 2301/2303 07015KT

Orai ataskaitas ir orų prognozės (METAR, TAF).

turimą stotys yra geltonos ir raudonos taškus žemėlapyje.

Perkelti pele per norėdami pamatyti stoties vardą.

Tada spustelėkite, norėdami matyti oro stebėjimo ir prognozės.

Norėdami pakeisti žemėlapį: spustelėkite ant žalios mygtukų su juodo kryžiaus žemyn,; žalią mygtuką su brūkšneliu, jei norite nutolinti; arba žalių rodyklių gretimoms žemėlapius.


METAR-TAF: